createdAt,value
2023-03-02T00:01:09.058Z,102148.31
2023-03-02T00:03:38.554Z,102156.13
2023-03-02T00:06:05.558Z,102157.34
2023-03-02T00:08:33.766Z,102148.97
2023-03-02T00:11:01.344Z,102151.72
2023-03-02T00:13:30.656Z,102158.78
2023-03-02T00:15:57.301Z,102157.22
2023-03-02T00:18:23.901Z,102150.72
2023-03-02T00:20:50.334Z,102153.50
2023-03-02T00:23:16.907Z,102146.06
2023-03-02T00:25:43.449Z,102146.34
2023-03-02T00:28:10.153Z,102155.06
2023-03-02T00:30:38.941Z,102153.47
2023-03-02T00:33:05.544Z,102144.19
2023-03-02T00:35:37.625Z,102143.41
2023-03-02T00:38:04.054Z,102152.78
2023-03-02T00:40:30.620Z,102156.19
2023-03-02T00:42:57.070Z,102149.53
2023-03-02T00:45:23.514Z,102141.38
2023-03-02T00:47:49.998Z,102149.91
2023-03-02T00:50:16.551Z,102147.47
2023-03-02T00:52:43.170Z,102142.47
2023-03-02T00:55:09.857Z,102149.47
2023-03-02T00:57:36.355Z,102140.28
2023-03-02T01:00:02.994Z,102135.44
2023-03-02T01:02:29.691Z,102133.88
2023-03-02T01:04:56.326Z,102139.75
2023-03-02T01:07:24.960Z,102138.72
2023-03-02T01:09:51.916Z,102128.34
2023-03-02T01:12:18.881Z,102132.22
2023-03-02T01:14:47.989Z,102137.88
2023-03-02T01:17:15.378Z,102141.13
2023-03-02T01:19:42.089Z,102138.69
2023-03-02T01:22:09.331Z,102126.19
2023-03-02T01:24:35.782Z,102131.22
2023-03-02T01:27:02.266Z,102128.72
2023-03-02T01:29:28.895Z,102139.00
2023-03-02T01:31:55.734Z,102129.66
2023-03-02T01:34:22.275Z,102123.16
2023-03-02T01:36:48.680Z,102124.94
2023-03-02T01:39:15.958Z,102121.72
2023-03-02T01:41:45.069Z,102115.88
2023-03-02T01:44:42.620Z,102118.97
2023-03-02T01:47:13.995Z,102115.31
2023-03-02T01:49:47.475Z,102116.16
2023-03-02T01:52:15.591Z,102115.25
2023-03-02T01:54:43.568Z,102111.81
2023-03-02T01:57:10.891Z,102115.91
2023-03-02T01:59:41.377Z,102117.72
2023-03-02T02:02:10.769Z,102098.97
2023-03-02T02:04:39.538Z,102106.72
2023-03-02T02:07:08.101Z,102100.88
2023-03-02T02:09:45.813Z,102100.28
2023-03-02T02:12:15.674Z,102097.06
2023-03-02T02:14:42.660Z,102100.31
2023-03-02T02:17:09.989Z,102103.56
2023-03-02T02:19:54.562Z,102100.75
2023-03-02T02:22:37.804Z,102087.16
2023-03-02T02:25:11.770Z,102089.81
2023-03-02T02:27:38.296Z,102100.16
2023-03-02T02:30:06.714Z,102097.28
2023-03-02T02:32:38.231Z,102098.25
2023-03-02T02:35:11.345Z,102094.78
2023-03-02T02:37:52.083Z,102093.84
2023-03-02T02:40:56.317Z,102091.91
2023-03-02T02:43:23.372Z,102082.59
2023-03-02T02:45:54.047Z,102091.91
2023-03-02T02:48:24.182Z,102086.00
2023-03-02T02:51:00.453Z,102087.84
2023-03-02T02:53:35.311Z,102086.28
2023-03-02T02:56:04.348Z,102078.19
2023-03-02T02:58:48.475Z,102085.06
2023-03-02T03:01:18.451Z,102090.38
2023-03-02T03:03:51.274Z,102093.13
2023-03-02T03:06:26.864Z,102094.13
2023-03-02T03:08:59.680Z,102094.06
2023-03-02T03:11:29.499Z,102086.59
2023-03-02T03:14:02.653Z,102090.09
2023-03-02T03:16:31.408Z,102087.63
2023-03-02T03:19:18.305Z,102089.44
2023-03-02T03:21:45.334Z,102091.84
2023-03-02T03:24:11.829Z,102086.97
2023-03-02T03:26:38.406Z,102088.72
2023-03-02T03:29:04.963Z,102086.44
2023-03-02T03:31:31.543Z,102093.28
2023-03-02T03:34:01.373Z,102085.00
2023-03-02T03:36:30.087Z,102092.69
2023-03-02T03:38:57.849Z,102092.88
2023-03-02T03:41:24.790Z,102092.91
2023-03-02T03:43:51.474Z,102093.81
2023-03-02T03:46:18.746Z,102099.00
2023-03-02T03:48:45.546Z,102087.88
2023-03-02T03:51:12.104Z,102095.81
2023-03-02T03:53:38.711Z,102093.34
2023-03-02T03:56:05.517Z,102095.13
2023-03-02T03:58:32.381Z,102090.22
2023-03-02T04:00:59.797Z,102092.06
2023-03-02T04:03:27.075Z,102093.22
2023-03-02T04:05:53.526Z,102088.38
2023-03-02T04:08:20.227Z,102092.66
2023-03-02T04:10:46.817Z,102095.09
2023-03-02T04:13:13.359Z,102097.56
2023-03-02T04:15:41.701Z,102096.78
2023-03-02T04:18:08.388Z,102096.06
2023-03-02T04:20:35.545Z,102100.34
2023-03-02T04:23:02.008Z,102109.72
2023-03-02T04:25:29.937Z,102100.44
2023-03-02T04:27:56.744Z,102095.38
2023-03-02T04:30:25.592Z,102105.63
2023-03-02T04:32:52.290Z,102092.19
2023-03-02T04:35:18.910Z,102097.97
2023-03-02T04:37:46.951Z,102094.69
2023-03-02T04:40:14.620Z,102099.69
2023-03-02T04:42:41.776Z,102097.81
2023-03-02T04:45:09.183Z,102091.53
2023-03-02T04:47:35.648Z,102074.53
2023-03-02T04:50:02.342Z,102070.25
2023-03-02T04:52:28.792Z,102085.47
2023-03-02T04:54:55.331Z,102070.25
2023-03-02T04:57:21.777Z,102062.78
2023-03-02T04:59:48.233Z,102071.16
2023-03-02T05:02:14.633Z,102075.44
2023-03-02T05:04:42.300Z,102065.34
2023-03-02T05:07:08.998Z,102076.44
2023-03-02T05:09:35.727Z,102082.50
2023-03-02T05:12:02.378Z,102080.03
2023-03-02T05:14:29.685Z,102080.78
2023-03-02T05:16:56.310Z,102068.91
2023-03-02T05:19:23.168Z,102072.19
2023-03-02T05:21:50.182Z,102074.03
2023-03-02T05:24:16.796Z,102074.88
2023-03-02T05:26:43.298Z,102075.03
2023-03-02T05:29:09.981Z,102075.13
2023-03-02T05:31:45.065Z,102080.31
2023-03-02T05:34:14.601Z,102067.13
2023-03-02T05:36:41.100Z,102084.97
2023-03-02T05:39:09.066Z,102084.22
2023-03-02T05:41:36.963Z,102079.34
2023-03-02T05:44:04.438Z,102066.00
2023-03-02T05:46:31.409Z,102070.94
2023-03-02T05:48:58.228Z,102073.34
2023-03-02T05:51:24.682Z,102080.16
2023-03-02T05:53:51.237Z,102084.44
2023-03-02T05:56:18.019Z,102086.88
2023-03-02T05:58:44.531Z,102085.19
2023-03-02T06:01:13.641Z,102080.06
2023-03-02T06:03:41.613Z,102080.91
2023-03-02T06:06:08.081Z,102086.84
2023-03-02T06:08:34.551Z,102091.06
2023-03-02T06:11:00.976Z,102097.94
2023-03-02T06:13:27.475Z,102098.00
2023-03-02T06:15:53.882Z,102100.59
2023-03-02T06:18:20.340Z,102108.19
2023-03-02T06:20:46.830Z,102103.13
2023-03-02T06:23:13.916Z,102116.69
2023-03-02T06:25:43.658Z,102109.09
2023-03-02T06:28:10.211Z,102114.88
2023-03-02T06:30:36.708Z,102123.41
2023-03-02T06:33:04.024Z,102121.59
2023-03-02T06:35:30.572Z,102118.88
2023-03-02T06:37:57.061Z,102119.44
2023-03-02T06:40:24.796Z,102118.63
2023-03-02T06:42:51.315Z,102126.03
2023-03-02T06:45:17.837Z,102119.88
2023-03-02T06:47:44.261Z,102121.13
2023-03-02T06:50:11.586Z,102132.28
2023-03-02T06:52:38.100Z,102136.97
2023-03-02T06:55:05.397Z,102132.25
2023-03-02T06:57:34.296Z,102131.72
2023-03-02T07:00:09.639Z,102117.81
2023-03-02T07:02:36.881Z,102131.00
2023-03-02T07:05:03.573Z,102120.34
2023-03-02T07:07:30.183Z,102121.78
2023-03-02T07:09:56.598Z,102114.78
2023-03-02T07:12:23.017Z,102119.56
2023-03-02T07:14:49.448Z,102106.34
2023-03-02T07:17:15.990Z,102129.50
2023-03-02T07:19:42.411Z,102129.13
2023-03-02T07:22:08.827Z,102128.13
2023-03-02T07:24:35.281Z,102124.22
2023-03-02T07:27:01.706Z,102117.00
2023-03-02T07:29:28.262Z,102115.84
2023-03-02T07:31:57.308Z,102104.31
2023-03-02T07:34:24.755Z,102102.25
2023-03-02T07:36:51.970Z,102111.81
2023-03-02T07:39:18.887Z,102119.91
2023-03-02T07:41:45.631Z,102105.09
2023-03-02T07:44:12.444Z,102103.97
2023-03-02T07:46:39.108Z,102107.94
2023-03-02T07:49:05.752Z,102113.47
2023-03-02T07:51:32.626Z,102115.75
2023-03-02T07:53:59.427Z,102118.25
2023-03-02T07:56:25.860Z,102108.63
2023-03-02T07:58:52.386Z,102086.50
2023-03-02T08:01:18.850Z,102101.41
2023-03-02T08:03:45.402Z,102105.00
2023-03-02T08:06:12.844Z,102114.06
2023-03-02T08:08:39.515Z,102109.59
2023-03-02T08:11:10.771Z,102108.28
2023-03-02T08:13:37.648Z,102099.31
2023-03-02T08:16:06.553Z,102109.56
2023-03-02T08:18:34.001Z,102096.41
2023-03-02T08:21:00.457Z,102104.69
2023-03-02T08:23:27.337Z,102092.28
2023-03-02T08:25:54.554Z,102096.47
2023-03-02T08:28:22.773Z,102090.50
2023-03-02T08:30:59.170Z,102091.16
2023-03-02T08:33:27.236Z,102090.91
2023-03-02T08:36:07.887Z,102091.66
2023-03-02T08:38:35.414Z,102091.59
2023-03-02T08:41:07.171Z,102094.94
2023-03-02T08:43:34.226Z,102079.34
2023-03-02T08:46:01.887Z,102090.81
2023-03-02T08:48:29.090Z,102081.19
2023-03-02T08:51:16.072Z,102087.59
2023-03-02T08:53:46.274Z,102086.66
2023-03-02T08:56:24.860Z,102081.75
2023-03-02T08:58:52.993Z,102091.72
2023-03-02T09:01:23.508Z,102077.75
2023-03-02T09:03:50.441Z,102079.81
2023-03-02T09:06:17.331Z,102079.28
2023-03-02T09:08:44.549Z,102082.28
2023-03-02T09:11:11.220Z,102079.34
2023-03-02T09:13:37.842Z,102078.03
2023-03-02T09:16:05.562Z,102080.69
2023-03-02T09:18:32.379Z,102077.38
2023-03-02T09:20:58.901Z,102071.97
2023-03-02T09:23:27.068Z,102079.78
2023-03-02T09:25:54.736Z,102073.78
2023-03-02T09:28:21.759Z,102080.03
2023-03-02T09:30:53.070Z,102071.88
2023-03-02T09:33:20.586Z,102084.63
2023-03-02T09:35:47.681Z,102077.38
2023-03-02T09:38:18.246Z,102079.59
2023-03-02T09:41:00.816Z,102083.84
2023-03-02T09:43:33.061Z,102072.03
2023-03-02T09:46:02.695Z,102077.44
2023-03-02T09:48:40.525Z,102078.41
2023-03-02T09:51:31.308Z,102077.34
2023-03-02T09:54:03.259Z,102081.09
2023-03-02T09:56:30.700Z,102082.66
2023-03-02T09:59:08.616Z,102077.53
2023-03-02T10:01:42.903Z,102088.31
2023-03-02T10:04:44.452Z,102077.44
2023-03-02T10:07:27.778Z,102083.78
2023-03-02T10:09:58.004Z,102082.41
2023-03-02T10:12:33.430Z,102078.19
2023-03-02T10:15:12.602Z,102071.59
2023-03-02T10:18:13.908Z,102068.25
2023-03-02T10:21:06.667Z,102079.03
2023-03-02T10:23:44.134Z,102070.94
2023-03-02T10:26:34.511Z,102075.63
2023-03-02T10:29:24.939Z,102069.72
2023-03-02T10:32:00.821Z,102062.63
2023-03-02T10:34:31.452Z,102062.72
2023-03-02T10:36:58.600Z,102058.22
2023-03-02T10:39:25.208Z,102064.56
2023-03-02T10:41:58.205Z,102061.69
2023-03-02T10:44:33.010Z,102048.75
2023-03-02T10:46:59.463Z,102062.84
2023-03-02T10:49:26.139Z,102065.00
2023-03-02T10:51:59.385Z,102058.09
2023-03-02T10:54:26.183Z,102061.25
2023-03-02T10:56:56.443Z,102063.06
2023-03-02T10:59:26.091Z,102073.63
2023-03-02T11:02:04.534Z,102059.28
2023-03-02T11:04:31.396Z,102063.75
2023-03-02T11:07:13.042Z,102048.69
2023-03-02T11:09:39.554Z,102059.34
2023-03-02T11:12:15.329Z,102048.50
2023-03-02T11:14:42.631Z,102038.13
2023-03-02T11:17:42.145Z,102043.69
2023-03-02T11:20:16.880Z,102045.19
2023-03-02T11:22:49.724Z,102043.22
2023-03-02T11:25:28.515Z,102038.66
2023-03-02T11:28:02.459Z,102031.47
2023-03-02T11:30:34.475Z,102037.19
2023-03-02T11:33:08.289Z,102041.59
2023-03-02T11:35:45.159Z,102038.59
2023-03-02T11:38:28.365Z,102032.41
2023-03-02T11:41:06.871Z,102029.38
2023-03-02T11:43:33.424Z,102024.84
2023-03-02T11:46:13.878Z,102034.59
2023-03-02T11:48:50.965Z,102016.41
2023-03-02T11:51:50.046Z,102016.13
2023-03-02T11:54:40.537Z,102016.28
2023-03-02T11:57:19.038Z,102010.88
2023-03-02T11:59:45.815Z,102011.69
2023-03-02T12:02:14.072Z,102011.66
2023-03-02T12:04:40.719Z,102006.69
2023-03-02T12:07:23.581Z,102001.56
2023-03-02T12:10:00.668Z,102009.63
2023-03-02T12:12:38.751Z,101999.41
2023-03-02T12:15:37.143Z,101999.63
2023-03-02T12:18:20.373Z,101987.91
2023-03-02T12:20:59.130Z,101978.47
2023-03-02T12:23:25.915Z,101972.69
2023-03-02T12:26:21.691Z,101964.66
2023-03-02T12:29:19.594Z,101964.66
2023-03-02T12:31:52.023Z,101944.50
2023-03-02T12:34:24.590Z,101959.53
2023-03-02T12:36:54.570Z,101947.25
2023-03-02T12:39:51.988Z,101949.09
2023-03-02T12:42:24.172Z,101953.09
2023-03-02T12:45:24.371Z,101943.69
2023-03-02T12:48:01.350Z,101943.25
2023-03-02T12:50:32.118Z,101935.50
2023-03-02T12:53:04.065Z,101939.47
2023-03-02T12:55:30.877Z,101939.47
2023-03-02T12:58:01.140Z,101929.78
2023-03-02T13:00:31.239Z,101928.56
2023-03-02T13:02:58.432Z,101921.00
2023-03-02T13:05:26.871Z,101913.50
2023-03-02T13:08:01.691Z,101900.81
2023-03-02T13:10:38.442Z,101898.00
2023-03-02T13:13:21.728Z,101891.66
2023-03-02T13:15:52.373Z,101893.72
2023-03-02T13:18:21.175Z,101879.84
2023-03-02T13:20:48.072Z,101883.78
2023-03-02T13:23:16.066Z,101876.03
2023-03-02T13:25:51.983Z,101882.66
2023-03-02T13:28:29.851Z,101879.84
2023-03-02T13:31:03.620Z,101884.63
2023-03-02T13:33:32.361Z,101884.31
2023-03-02T13:35:59.425Z,101881.16
2023-03-02T13:38:37.768Z,101877.38
2023-03-02T13:41:04.832Z,101882.66
2023-03-02T13:43:36.207Z,101880.63
2023-03-02T13:46:04.253Z,101880.72
2023-03-02T13:48:31.325Z,101877.72
2023-03-02T13:51:01.242Z,101873.69
2023-03-02T13:53:30.200Z,101869.00
2023-03-02T13:56:00.219Z,101868.34
2023-03-02T13:58:29.270Z,101875.28
2023-03-02T14:00:56.277Z,101873.50
2023-03-02T14:03:29.329Z,101862.69
2023-03-02T14:05:56.339Z,101879.63
2023-03-02T14:08:23.327Z,101864.03
2023-03-02T14:10:53.202Z,101850.63
2023-03-02T14:13:29.824Z,101853.09
2023-03-02T14:15:56.428Z,101846.09
2023-03-02T14:18:35.125Z,101858.69
2023-03-02T14:21:01.842Z,101852.78
2023-03-02T14:23:28.688Z,101821.81
2023-03-02T14:25:56.677Z,101821.28
2023-03-02T14:28:30.902Z,101847.25
2023-03-02T14:30:58.624Z,101838.50
2023-03-02T14:33:25.919Z,101844.50
2023-03-02T14:35:56.484Z,101837.09
2023-03-02T14:38:26.350Z,101849.22
2023-03-02T14:40:52.965Z,101839.66
2023-03-02T14:43:21.152Z,101826.53
2023-03-02T14:45:52.392Z,101841.28
2023-03-02T14:48:31.358Z,101781.75
2023-03-02T14:51:08.196Z,101831.19
2023-03-02T14:53:35.343Z,101812.16
2023-03-02T14:56:02.327Z,101787.66
2023-03-02T14:58:34.724Z,101835.25
2023-03-02T15:01:01.628Z,101825.47
2023-03-02T15:03:32.014Z,101783.41
2023-03-02T15:06:01.775Z,101813.88
2023-03-02T15:08:29.752Z,101784.81
2023-03-02T15:10:56.339Z,101832.91
2023-03-02T15:13:22.710Z,101834.28
2023-03-02T15:15:52.908Z,101795.66
2023-03-02T15:18:20.043Z,101823.28
2023-03-02T15:20:47.095Z,101827.34
2023-03-02T15:23:13.632Z,101817.53
2023-03-02T15:25:40.715Z,101825.88
2023-03-02T15:28:07.384Z,101814.00
2023-03-02T15:30:34.202Z,101816.59
2023-03-02T15:33:00.780Z,101812.69
2023-03-02T15:35:29.335Z,101814.31
2023-03-02T15:37:58.392Z,101808.09
2023-03-02T15:40:25.751Z,101822.63
2023-03-02T15:42:53.230Z,101823.75
2023-03-02T15:45:20.048Z,101802.59
2023-03-02T15:47:49.678Z,101828.72
2023-03-02T15:50:16.251Z,101831.81
2023-03-02T15:52:42.666Z,101823.34
2023-03-02T15:55:09.450Z,101834.41
2023-03-02T15:57:42.779Z,101837.50
2023-03-02T16:00:09.954Z,101838.25
2023-03-02T16:02:36.544Z,101823.44
2023-03-02T16:05:03.208Z,101824.91
2023-03-02T16:07:32.105Z,101833.38
2023-03-02T16:10:01.808Z,101828.38
2023-03-02T16:12:28.254Z,101828.59
2023-03-02T16:14:54.786Z,101830.75
2023-03-02T16:17:21.472Z,101827.28
2023-03-02T16:19:50.485Z,101868.63
2023-03-02T16:25:00.296Z,101847.06
2023-03-02T16:27:26.979Z,101845.56
2023-03-02T16:29:53.437Z,101865.81
2023-03-02T16:32:22.017Z,101865.81
2023-03-02T16:34:48.721Z,101865.78
2023-03-02T16:37:15.308Z,101852.88
2023-03-02T16:39:41.733Z,101857.03
2023-03-02T16:42:08.160Z,101867.78
2023-03-02T16:44:34.620Z,101854.50
2023-03-02T16:47:01.035Z,101869.34
2023-03-02T16:49:27.512Z,101864.41
2023-03-02T16:51:57.843Z,101884.94
2023-03-02T16:54:25.022Z,101883.56
2023-03-02T16:56:51.649Z,101836.13
2023-03-02T16:59:18.171Z,101897.25
2023-03-02T17:01:45.030Z,101837.28
2023-03-02T17:04:14.303Z,101792.28
2023-03-02T17:07:03.521Z,101794.59
2023-03-02T17:09:32.615Z,101836.50
2023-03-02T17:11:59.369Z,101804.88
2023-03-02T17:14:26.528Z,101815.63
2023-03-02T17:16:54.198Z,101916.06
2023-03-02T17:19:23.430Z,101910.66
2023-03-02T17:21:49.874Z,101911.47
2023-03-02T17:24:16.400Z,101881.25
2023-03-02T17:26:42.927Z,101873.69
2023-03-02T17:29:09.465Z,101881.75
2023-03-02T17:31:36.045Z,101920.03
2023-03-02T17:34:06.842Z,101915.81
2023-03-02T17:36:36.567Z,101922.88
2023-03-02T17:39:03.914Z,101820.06
2023-03-02T17:41:32.290Z,101856.38
2023-03-02T17:43:59.102Z,101841.59
2023-03-02T17:46:28.977Z,101878.34
2023-03-02T17:49:03.388Z,101849.25
2023-03-02T17:51:30.127Z,101892.47
2023-03-02T17:53:56.937Z,101935.34
2023-03-02T17:56:25.967Z,101937.47
2023-03-02T17:59:00.127Z,101927.03
2023-03-02T18:01:30.954Z,101857.88
2023-03-02T18:03:59.173Z,101933.00
2023-03-02T18:06:25.811Z,101952.78
2023-03-02T18:09:00.458Z,101921.88
2023-03-02T18:11:36.040Z,101886.50
2023-03-02T18:14:02.824Z,101937.50
2023-03-02T18:16:34.110Z,101910.69
2023-03-02T18:19:02.467Z,101909.81
2023-03-02T18:21:38.186Z,101849.19
2023-03-02T18:24:09.275Z,101854.28
2023-03-02T18:26:36.181Z,101901.41
2023-03-02T18:29:07.850Z,101857.66
2023-03-02T18:31:34.836Z,101909.78
2023-03-02T18:34:05.423Z,101930.25
2023-03-02T18:36:48.754Z,101922.19
2023-03-02T18:39:17.627Z,101941.59
2023-03-02T18:41:46.118Z,101937.44
2023-03-02T18:44:12.647Z,101865.78
2023-03-02T18:46:39.401Z,101901.63
2023-03-02T18:49:06.047Z,101921.06
2023-03-02T18:51:35.820Z,101868.97
2023-03-02T18:54:06.086Z,101921.84
2023-03-02T18:56:32.641Z,101938.22
2023-03-02T18:58:59.288Z,101973.16
2023-03-02T19:01:31.505Z,101933.25
2023-03-02T19:04:00.677Z,101965.50
2023-03-02T19:06:29.779Z,101918.34
2023-03-02T19:08:56.483Z,101950.72
2023-03-02T19:11:23.095Z,101928.91
2023-03-02T19:13:49.622Z,101965.13
2023-03-02T19:16:18.245Z,101992.41
2023-03-02T19:18:48.611Z,101982.50
2023-03-02T19:21:15.372Z,102007.50
2023-03-02T19:23:42.283Z,101898.22
2023-03-02T19:26:09.422Z,101946.56
2023-03-02T19:28:38.059Z,101950.38
2023-03-02T19:31:06.971Z,101972.91
2023-03-02T19:33:34.119Z,101955.16
2023-03-02T19:36:00.712Z,102006.28
2023-03-02T19:38:29.251Z,101957.19
2023-03-02T19:41:00.894Z,101951.53
2023-03-02T19:43:30.776Z,101937.50
2023-03-02T19:45:57.719Z,101941.75
2023-03-02T19:48:24.414Z,101917.44
2023-03-02T19:53:38.202Z,101919.28
2023-03-02T19:56:08.215Z,101984.78
2023-03-02T19:58:47.365Z,101893.59
2023-03-02T20:01:16.955Z,102028.41
2023-03-02T20:03:44.453Z,101930.34
2023-03-02T20:06:11.029Z,101999.72
2023-03-02T20:08:37.671Z,101952.41
2023-03-02T20:11:04.339Z,101976.34
2023-03-02T20:13:34.248Z,101979.47
2023-03-02T20:16:00.793Z,101980.72
2023-03-02T20:18:27.887Z,101945.75
2023-03-02T20:20:55.033Z,101964.91
2023-03-02T20:23:21.777Z,101960.66
2023-03-02T20:25:50.602Z,102013.19
2023-03-02T20:28:22.606Z,102045.94
2023-03-02T20:30:56.211Z,101977.72
2023-03-02T20:33:27.691Z,101977.22
2023-03-02T20:35:54.813Z,101972.13
2023-03-02T20:38:33.375Z,101979.72
2023-03-02T20:41:01.166Z,101977.13
2023-03-02T20:43:28.764Z,101958.38
2023-03-02T20:45:56.121Z,101996.56
2023-03-02T20:48:22.968Z,101949.63
2023-03-02T20:50:51.130Z,102001.50
2023-03-02T20:53:18.092Z,101982.00
2023-03-02T20:55:45.012Z,101990.28
2023-03-02T20:58:12.686Z,101930.81
2023-03-02T21:00:40.306Z,101996.59
2023-03-02T21:03:08.451Z,101934.41
2023-03-02T21:05:37.385Z,102007.28
2023-03-02T21:08:05.096Z,101984.28
2023-03-02T21:10:35.732Z,102014.13
2023-03-02T21:13:04.815Z,102036.19
2023-03-02T21:15:32.163Z,102003.63
2023-03-02T21:17:59.411Z,102012.88
2023-03-02T21:20:35.570Z,102027.69
2023-03-02T21:23:03.044Z,101992.97
2023-03-02T21:25:29.697Z,102005.28
2023-03-02T21:27:56.325Z,102053.28
2023-03-02T21:30:26.495Z,101962.88
2023-03-02T21:32:53.656Z,101998.69
2023-03-02T21:35:21.561Z,102059.78
2023-03-02T21:37:50.349Z,102048.94
2023-03-02T21:40:21.491Z,102034.88
2023-03-02T21:42:48.383Z,102019.63
2023-03-02T21:45:14.915Z,102048.94
2023-03-02T21:47:43.204Z,102051.53
2023-03-02T21:50:14.013Z,102048.78
2023-03-02T21:52:40.520Z,102014.88
2023-03-02T21:55:08.243Z,102048.78
2023-03-02T21:57:35.342Z,102058.22
2023-03-02T22:00:04.531Z,102044.94
2023-03-02T22:02:31.757Z,102010.03
2023-03-02T22:04:58.405Z,102000.03
2023-03-02T22:07:25.254Z,102002.63
2023-03-02T22:09:52.544Z,102045.19
2023-03-02T22:12:22.510Z,101988.44
2023-03-02T22:14:49.039Z,102039.78
2023-03-02T22:17:19.021Z,102047.78
2023-03-02T22:19:45.610Z,102046.88
2023-03-02T22:22:19.372Z,102037.59
2023-03-02T22:24:49.333Z,102034.38
2023-03-02T22:27:22.126Z,102051.19
2023-03-02T22:29:49.360Z,102040.88
2023-03-02T22:32:38.495Z,102048.63
2023-03-02T22:35:21.101Z,102047.63
2023-03-02T22:37:47.645Z,102050.13
2023-03-02T22:40:26.252Z,102027.19
2023-03-02T22:43:01.543Z,101971.91
2023-03-02T22:45:28.941Z,102048.56
2023-03-02T22:48:02.108Z,102050.38
2023-03-02T22:50:30.307Z,102059.88
2023-03-02T22:53:00.891Z,102057.94
2023-03-02T22:55:30.172Z,102072.25
2023-03-02T22:57:56.914Z,102057.84
2023-03-02T23:00:40.558Z,102060.28
2023-03-02T23:03:18.721Z,102063.69
2023-03-02T23:05:49.053Z,102053.53
2023-03-02T23:08:29.215Z,102056.44
2023-03-02T23:10:58.468Z,102067.69
2023-03-02T23:13:31.198Z,102047.59
2023-03-02T23:15:57.770Z,102054.44
2023-03-02T23:18:29.535Z,102013.44
2023-03-02T23:20:56.040Z,102037.75
2023-03-02T23:23:24.577Z,102037.69
2023-03-02T23:25:51.219Z,102050.25
2023-03-02T23:28:17.682Z,102045.25
2023-03-02T23:30:45.292Z,102036.91
2023-03-02T23:33:11.714Z,102055.31
2023-03-02T23:35:38.229Z,102035.00
2023-03-02T23:38:04.814Z,102023.28
2023-03-02T23:40:31.703Z,102020.94
2023-03-02T23:42:58.302Z,101994.25
2023-03-02T23:45:24.829Z,102035.59
2023-03-02T23:47:51.275Z,102031.34
2023-03-02T23:50:17.682Z,102034.84
2023-03-02T23:52:44.180Z,102043.78
2023-03-02T23:55:11.345Z,102017.84
2023-03-02T23:57:37.757Z,102050.44
